sensor_id;sensor_type;location;lat;lon;timestamp;temperature;humidity
152;DHT22;68;48.792;9.164;2023-07-20T00:02:05;20.60;74.20
152;DHT22;68;48.792;9.164;2023-07-20T00:04:33;20.50;71.90
152;DHT22;68;48.792;9.164;2023-07-20T00:07:00;20.30;73.60
152;DHT22;68;48.792;9.164;2023-07-20T00:09:27;20.40;70.40
152;DHT22;68;48.792;9.164;2023-07-20T00:11:54;20.60;70.40
152;DHT22;68;48.792;9.164;2023-07-20T00:14:21;20.50;69.30
152;DHT22;68;48.792;9.164;2023-07-20T00:16:50;20.30;70.00
152;DHT22;68;48.792;9.164;2023-07-20T00:19:21;20.40;69.50
152;DHT22;68;48.792;9.164;2023-07-20T00:21:49;20.20;69.00
152;DHT22;68;48.792;9.164;2023-07-20T00:24:15;20.10;68.40
152;DHT22;68;48.792;9.164;2023-07-20T00:26:43;20.00;68.40
152;DHT22;68;48.792;9.164;2023-07-20T00:29:10;20.10;67.30
152;DHT22;68;48.792;9.164;2023-07-20T00:31:37;19.80;69.00
152;DHT22;68;48.792;9.164;2023-07-20T00:34:05;19.70;69.20
152;DHT22;68;48.792;9.164;2023-07-20T00:36:32;19.70;69.60
152;DHT22;68;48.792;9.164;2023-07-20T00:38:58;19.80;70.10
152;DHT22;68;48.792;9.164;2023-07-20T00:43:54;19.90;68.40
152;DHT22;68;48.792;9.164;2023-07-20T00:46:23;19.90;68.40
152;DHT22;68;48.792;9.164;2023-07-20T00:48:50;19.90;67.50
152;DHT22;68;48.792;9.164;2023-07-20T00:51:19;20.00;67.90
152;DHT22;68;48.792;9.164;2023-07-20T00:53:46;19.80;68.00
152;DHT22;68;48.792;9.164;2023-07-20T00:56:13;19.70;69.00
152;DHT22;68;48.792;9.164;2023-07-20T00:58:41;19.50;69.50
152;DHT22;68;48.792;9.164;2023-07-20T01:01:08;19.60;69.10
152;DHT22;68;48.792;9.164;2023-07-20T01:03:33;19.70;68.10
152;DHT22;68;48.792;9.164;2023-07-20T01:06:10;19.70;70.20
152;DHT22;68;48.792;9.164;2023-07-20T01:08:45;19.80;69.00
152;DHT22;68;48.792;9.164;2023-07-20T01:11:17;19.60;71.10
152;DHT22;68;48.792;9.164;2023-07-20T01:13:50;19.40;71.70
152;DHT22;68;48.792;9.164;2023-07-20T01:16:17;19.30;70.20
152;DHT22;68;48.792;9.164;2023-07-20T01:18:43;19.10;72.80
152;DHT22;68;48.792;9.164;2023-07-20T01:21:24;19.00;72.60
152;DHT22;68;48.792;9.164;2023-07-20T01:24:11;18.90;72.10
152;DHT22;68;48.792;9.164;2023-07-20T01:27:05;19.10;71.10
152;DHT22;68;48.792;9.164;2023-07-20T01:29:49;19.20;71.70
152;DHT22;68;48.792;9.164;2023-07-20T01:32:23;19.10;71.70
152;DHT22;68;48.792;9.164;2023-07-20T01:34:52;19.00;72.50
152;DHT22;68;48.792;9.164;2023-07-20T01:37:21;18.80;72.40
152;DHT22;68;48.792;9.164;2023-07-20T01:39:52;18.60;74.50
152;DHT22;68;48.792;9.164;2023-07-20T01:42:21;18.50;73.90
152;DHT22;68;48.792;9.164;2023-07-20T01:44:50;18.40;74.70
152;DHT22;68;48.792;9.164;2023-07-20T01:47:17;18.30;74.90
152;DHT22;68;48.792;9.164;2023-07-20T01:49:45;18.40;76.60
152;DHT22;68;48.792;9.164;2023-07-20T01:52:12;18.30;74.80
152;DHT22;68;48.792;9.164;2023-07-20T01:54:38;18.20;75.20
152;DHT22;68;48.792;9.164;2023-07-20T01:57:05;18.10;76.10
152;DHT22;68;48.792;9.164;2023-07-20T01:59:32;18.00;75.80
152;DHT22;68;48.792;9.164;2023-07-20T02:01:59;18.10;77.00
152;DHT22;68;48.792;9.164;2023-07-20T02:04:25;18.20;76.90
152;DHT22;68;48.792;9.164;2023-07-20T02:06:54;18.30;76.80
152;DHT22;68;48.792;9.164;2023-07-20T02:09:21;18.20;76.60
152;DHT22;68;48.792;9.164;2023-07-20T02:11:47;18.40;76.50
152;DHT22;68;48.792;9.164;2023-07-20T02:14:15;18.40;76.80
152;DHT22;68;48.792;9.164;2023-07-20T02:16:42;18.30;76.80
152;DHT22;68;48.792;9.164;2023-07-20T02:19:09;18.40;75.70
152;DHT22;68;48.792;9.164;2023-07-20T02:21:36;18.30;76.00
152;DHT22;68;48.792;9.164;2023-07-20T02:24:05;18.30;76.10
152;DHT22;68;48.792;9.164;2023-07-20T02:26:32;18.10;77.40
152;DHT22;68;48.792;9.164;2023-07-20T02:28:59;17.90;77.70
152;DHT22;68;48.792;9.164;2023-07-20T02:31:25;17.80;77.60
152;DHT22;68;48.792;9.164;2023-07-20T02:33:52;17.70;77.90
152;DHT22;68;48.792;9.164;2023-07-20T02:36:19;17.60;79.20
152;DHT22;68;48.792;9.164;2023-07-20T02:38:46;17.50;78.80
152;DHT22;68;48.792;9.164;2023-07-20T02:41:14;17.60;80.40
152;DHT22;68;48.792;9.164;2023-07-20T02:43:41;17.60;79.50
152;DHT22;68;48.792;9.164;2023-07-20T02:46:08;17.70;78.50
152;DHT22;68;48.792;9.164;2023-07-20T02:48:34;17.70;78.70
152;DHT22;68;48.792;9.164;2023-07-20T02:51:01;17.70;79.40
152;DHT22;68;48.792;9.164;2023-07-20T02:53:28;17.80;78.20
152;DHT22;68;48.792;9.164;2023-07-20T02:55:55;17.80;78.70
152;DHT22;68;48.792;9.164;2023-07-20T02:58:23;17.80;78.60
152;DHT22;68;48.792;9.164;2023-07-20T03:00:49;17.80;78.80
152;DHT22;68;48.792;9.164;2023-07-20T03:03:16;17.70;78.80
152;DHT22;68;48.792;9.164;2023-07-20T03:05:43;17.60;79.30
152;DHT22;68;48.792;9.164;2023-07-20T03:08:10;17.50;79.50
152;DHT22;68;48.792;9.164;2023-07-20T03:10:39;17.50;79.80
152;DHT22;68;48.792;9.164;2023-07-20T03:13:06;17.50;80.20
152;DHT22;68;48.792;9.164;2023-07-20T03:15:34;17.40;81.50
152;DHT22;68;48.792;9.164;2023-07-20T03:18:01;17.40;81.00
152;DHT22;68;48.792;9.164;2023-07-20T03:20:29;17.50;80.60
152;DHT22;68;48.792;9.164;2023-07-20T03:22:55;17.40;80.30
152;DHT22;68;48.792;9.164;2023-07-20T03:25:22;17.40;81.50
152;DHT22;68;48.792;9.164;2023-07-20T03:27:49;17.30;82.10
152;DHT22;68;48.792;9.164;2023-07-20T03:30:16;17.40;81.80
152;DHT22;68;48.792;9.164;2023-07-20T03:32:44;17.30;81.30
152;DHT22;68;48.792;9.164;2023-07-20T03:35:11;17.40;81.10
152;DHT22;68;48.792;9.164;2023-07-20T03:37:38;17.40;80.20
152;DHT22;68;48.792;9.164;2023-07-20T03:40:06;17.40;80.40
152;DHT22;68;48.792;9.164;2023-07-20T03:42:33;17.40;80.30
152;DHT22;68;48.792;9.164;2023-07-20T03:45:00;17.40;81.00
152;DHT22;68;48.792;9.164;2023-07-20T03:47:29;17.40;81.50
152;DHT22;68;48.792;9.164;2023-07-20T03:49:57;17.40;81.40
152;DHT22;68;48.792;9.164;2023-07-20T03:52:24;17.20;81.60
152;DHT22;68;48.792;9.164;2023-07-20T03:54:51;17.20;81.80
152;DHT22;68;48.792;9.164;2023-07-20T03:57:18;17.10;81.40
152;DHT22;68;48.792;9.164;2023-07-20T03:59:45;16.80;81.70
152;DHT22;68;48.792;9.164;2023-07-20T04:02:12;16.70;83.80
152;DHT22;68;48.792;9.164;2023-07-20T04:04:39;16.70;83.30
152;DHT22;68;48.792;9.164;2023-07-20T04:07:07;16.70;84.00
152;DHT22;68;48.792;9.164;2023-07-20T04:09:34;16.70;84.10
152;DHT22;68;48.792;9.164;2023-07-20T04:12:01;16.70;84.00
152;DHT22;68;48.792;9.164;2023-07-20T04:14:28;17.00;83.70
152;DHT22;68;48.792;9.164;2023-07-20T04:16:55;17.10;84.30
152;DHT22;68;48.792;9.164;2023-07-20T04:19:21;17.10;83.80
152;DHT22;68;48.792;9.164;2023-07-20T04:21:48;17.10;84.20
152;DHT22;68;48.792;9.164;2023-07-20T04:24:16;16.90;84.20
152;DHT22;68;48.792;9.164;2023-07-20T04:26:43;16.90;83.70
152;DHT22;68;48.792;9.164;2023-07-20T04:29:10;16.90;83.80
152;DHT22;68;48.792;9.164;2023-07-20T04:31:36;17.00;84.40
152;DHT22;68;48.792;9.164;2023-07-20T04:34:03;17.00;85.20
152;DHT22;68;48.792;9.164;2023-07-20T04:36:30;17.40;83.00
152;DHT22;68;48.792;9.164;2023-07-20T04:38:57;17.40;83.10
152;DHT22;68;48.792;9.164;2023-07-20T04:41:25;17.20;84.20
152;DHT22;68;48.792;9.164;2023-07-20T04:43:51;17.40;83.60
152;DHT22;68;48.792;9.164;2023-07-20T04:46:17;17.70;82.20
152;DHT22;68;48.792;9.164;2023-07-20T04:48:44;17.70;83.00
152;DHT22;68;48.792;9.164;2023-07-20T04:51:11;17.80;82.50
152;DHT22;68;48.792;9.164;2023-07-20T04:53:38;18.10;82.00
152;DHT22;68;48.792;9.164;2023-07-20T04:56:05;18.10;82.00
152;DHT22;68;48.792;9.164;2023-07-20T04:58:33;18.00;81.50
152;DHT22;68;48.792;9.164;2023-07-20T05:01:00;18.20;81.40
152;DHT22;68;48.792;9.164;2023-07-20T05:03:27;18.20;80.70
152;DHT22;68;48.792;9.164;2023-07-20T05:05:54;18.20;81.30
152;DHT22;68;48.792;9.164;2023-07-20T05:08:21;18.30;80.70
152;DHT22;68;48.792;9.164;2023-07-20T05:10:48;18.20;81.20
152;DHT22;68;48.792;9.164;2023-07-20T05:13:16;18.30;80.30
152;DHT22;68;48.792;9.164;2023-07-20T05:15:44;18.40;81.20
152;DHT22;68;48.792;9.164;2023-07-20T05:18:11;18.40;80.60
152;DHT22;68;48.792;9.164;2023-07-20T05:20:37;18.40;80.50
152;DHT22;68;48.792;9.164;2023-07-20T05:23:04;18.40;78.90
152;DHT22;68;48.792;9.164;2023-07-20T05:25:31;18.50;79.50
152;DHT22;68;48.792;9.164;2023-07-20T05:27:58;18.50;80.10
152;DHT22;68;48.792;9.164;2023-07-20T05:30:25;18.50;80.90
152;DHT22;68;48.792;9.164;2023-07-20T05:32:55;18.40;82.50
152;DHT22;68;48.792;9.164;2023-07-20T05:35:22;18.30;80.80
152;DHT22;68;48.792;9.164;2023-07-20T05:37:49;18.40;80.90
152;DHT22;68;48.792;9.164;2023-07-20T05:40:16;18.50;81.00
152;DHT22;68;48.792;9.164;2023-07-20T05:42:44;18.60;79.90
152;DHT22;68;48.792;9.164;2023-07-20T05:45:13;18.60;81.20
152;DHT22;68;48.792;9.164;2023-07-20T05:47:41;18.80;81.80
152;DHT22;68;48.792;9.164;2023-07-20T05:50:09;18.80;80.40
152;DHT22;68;48.792;9.164;2023-07-20T05:52:36;18.90;79.50
152;DHT22;68;48.792;9.164;2023-07-20T05:55:05;19.10;78.80
152;DHT22;68;48.792;9.164;2023-07-20T05:57:32;19.30;78.90
152;DHT22;68;48.792;9.164;2023-07-20T05:59:59;19.40;78.40
152;DHT22;68;48.792;9.164;2023-07-20T06:02:26;19.50;78.30
152;DHT22;68;48.792;9.164;2023-07-20T06:04:52;19.50;78.10
152;DHT22;68;48.792;9.164;2023-07-20T06:07:21;19.60;77.00
152;DHT22;68;48.792;9.164;2023-07-20T06:09:48;19.60;76.60
152;DHT22;68;48.792;9.164;2023-07-20T06:12:15;19.60;76.60
152;DHT22;68;48.792;9.164;2023-07-20T06:14:42;19.50;76.90
152;DHT22;68;48.792;9.164;2023-07-20T06:17:09;19.60;76.40
152;DHT22;68;48.792;9.164;2023-07-20T06:19:35;19.70;76.80
152;DHT22;68;48.792;9.164;2023-07-20T06:22:03;19.80;75.90
152;DHT22;68;48.792;9.164;2023-07-20T06:24:31;19.90;75.70
152;DHT22;68;48.792;9.164;2023-07-20T06:26:58;19.90;76.20
152;DHT22;68;48.792;9.164;2023-07-20T06:29:24;19.90;76.20
152;DHT22;68;48.792;9.164;2023-07-20T06:31:51;19.90;77.20
152;DHT22;68;48.792;9.164;2023-07-20T06:34:18;19.90;76.70
152;DHT22;68;48.792;9.164;2023-07-20T06:36:45;19.90;76.60
152;DHT22;68;48.792;9.164;2023-07-20T06:39:11;19.80;76.80
152;DHT22;68;48.792;9.164;2023-07-20T06:41:41;19.90;77.40
152;DHT22;68;48.792;9.164;2023-07-20T06:44:07;20.00;76.60
152;DHT22;68;48.792;9.164;2023-07-20T06:46:34;20.20;75.90
152;DHT22;68;48.792;9.164;2023-07-20T06:49:01;20.30;76.00
152;DHT22;68;48.792;9.164;2023-07-20T06:51:28;20.30;75.70
152;DHT22;68;48.792;9.164;2023-07-20T06:53:54;20.30;75.60
152;DHT22;68;48.792;9.164;2023-07-20T06:56:21;20.20;77.80
152;DHT22;68;48.792;9.164;2023-07-20T06:58:49;20.30;76.60
152;DHT22;68;48.792;9.164;2023-07-20T07:01:16;20.20;75.10
152;DHT22;68;48.792;9.164;2023-07-20T07:03:43;20.30;75.10
152;DHT22;68;48.792;9.164;2023-07-20T07:06:10;20.40;76.20
152;DHT22;68;48.792;9.164;2023-07-20T07:08:37;20.50;75.50
152;DHT22;68;48.792;9.164;2023-07-20T07:11:04;20.60;74.60
152;DHT22;68;48.792;9.164;2023-07-20T07:13:31;20.60;74.10
152;DHT22;68;48.792;9.164;2023-07-20T07:15:59;20.60;76.00
152;DHT22;68;48.792;9.164;2023-07-20T07:18:26;20.60;75.70
152;DHT22;68;48.792;9.164;2023-07-20T07:20:53;20.70;75.10
152;DHT22;68;48.792;9.164;2023-07-20T07:23:20;20.80;74.10
152;DHT22;68;48.792;9.164;2023-07-20T07:25:46;20.90;72.90
152;DHT22;68;48.792;9.164;2023-07-20T07:28:13;20.90;74.70
152;DHT22;68;48.792;9.164;2023-07-20T07:30:40;20.90;73.60
152;DHT22;68;48.792;9.164;2023-07-20T07:33:08;21.00;74.80
152;DHT22;68;48.792;9.164;2023-07-20T07:35:36;21.10;73.70
152;DHT22;68;48.792;9.164;2023-07-20T07:38:03;21.20;74.20
152;DHT22;68;48.792;9.164;2023-07-20T07:40:30;21.20;72.40
152;DHT22;68;48.792;9.164;2023-07-20T07:42:57;21.20;73.30
152;DHT22;68;48.792;9.164;2023-07-20T07:45:24;21.30;73.30
152;DHT22;68;48.792;9.164;2023-07-20T07:47:51;21.30;71.70
152;DHT22;68;48.792;9.164;2023-07-20T07:50:19;21.40;72.00
152;DHT22;68;48.792;9.164;2023-07-20T07:52:46;21.60;71.10
152;DHT22;68;48.792;9.164;2023-07-20T07:55:13;21.60;70.50
152;DHT22;68;48.792;9.164;2023-07-20T07:57:42;21.70;70.80
152;DHT22;68;48.792;9.164;2023-07-20T08:00:10;21.70;71.50
152;DHT22;68;48.792;9.164;2023-07-20T08:02:40;21.60;70.60
152;DHT22;68;48.792;9.164;2023-07-20T08:05:07;21.80;69.80
152;DHT22;68;48.792;9.164;2023-07-20T08:07:35;21.70;70.40
152;DHT22;68;48.792;9.164;2023-07-20T08:10:02;21.70;69.20
152;DHT22;68;48.792;9.164;2023-07-20T08:12:29;21.80;69.60
152;DHT22;68;48.792;9.164;2023-07-20T08:14:56;21.90;69.60
152;DHT22;68;48.792;9.164;2023-07-20T08:17:23;21.90;69.90
152;DHT22;68;48.792;9.164;2023-07-20T08:19:50;22.10;69.80
152;DHT22;68;48.792;9.164;2023-07-20T08:22:17;22.00;69.40
152;DHT22;68;48.792;9.164;2023-07-20T08:24:45;22.00;69.90
152;DHT22;68;48.792;9.164;2023-07-20T08:27:12;22.00;68.90
152;DHT22;68;48.792;9.164;2023-07-20T08:29:38;22.00;69.00
152;DHT22;68;48.792;9.164;2023-07-20T08:32:06;22.10;69.30
152;DHT22;68;48.792;9.164;2023-07-20T08:34:33;22.10;69.20
152;DHT22;68;48.792;9.164;2023-07-20T08:37:00;21.90;69.40
152;DHT22;68;48.792;9.164;2023-07-20T08:39:27;21.60;71.50
152;DHT22;68;48.792;9.164;2023-07-20T08:41:55;21.60;71.70
152;DHT22;68;48.792;9.164;2023-07-20T08:44:22;21.90;70.60
152;DHT22;68;48.792;9.164;2023-07-20T08:46:51;22.00;70.30
152;DHT22;68;48.792;9.164;2023-07-20T08:49:19;22.40;69.20
152;DHT22;68;48.792;9.164;2023-07-20T08:51:46;22.30;67.30
152;DHT22;68;48.792;9.164;2023-07-20T08:54:15;22.10;68.80
152;DHT22;68;48.792;9.164;2023-07-20T08:56:44;22.00;70.70
152;DHT22;68;48.792;9.164;2023-07-20T08:59:16;21.90;68.30
152;DHT22;68;48.792;9.164;2023-07-20T09:01:44;22.10;68.70
152;DHT22;68;48.792;9.164;2023-07-20T09:04:12;22.10;67.30
152;DHT22;68;48.792;9.164;2023-07-20T09:06:39;22.10;68.10
152;DHT22;68;48.792;9.164;2023-07-20T09:09:06;21.90;67.00
152;DHT22;68;48.792;9.164;2023-07-20T09:11:32;22.10;66.40
152;DHT22;68;48.792;9.164;2023-07-20T09:14:03;22.10;68.00
152;DHT22;68;48.792;9.164;2023-07-20T09:16:32;22.00;65.80
152;DHT22;68;48.792;9.164;2023-07-20T09:18:59;21.80;65.80
152;DHT22;68;48.792;9.164;2023-07-20T09:21:29;21.70;66.70
152;DHT22;68;48.792;9.164;2023-07-20T09:23:56;21.70;66.80
152;DHT22;68;48.792;9.164;2023-07-20T09:26:23;22.20;66.30
152;DHT22;68;48.792;9.164;2023-07-20T09:28:52;22.50;64.40
152;DHT22;68;48.792;9.164;2023-07-20T09:31:21;22.60;66.00
152;DHT22;68;48.792;9.164;2023-07-20T09:33:52;22.50;65.80
152;DHT22;68;48.792;9.164;2023-07-20T09:36:19;22.40;66.50
152;DHT22;68;48.792;9.164;2023-07-20T09:38:46;22.20;67.10
152;DHT22;68;48.792;9.164;2023-07-20T09:41:13;22.20;67.20
152;DHT22;68;48.792;9.164;2023-07-20T09:43:41;22.40;67.00
152;DHT22;68;48.792;9.164;2023-07-20T09:46:08;22.60;66.60
152;DHT22;68;48.792;9.164;2023-07-20T09:48:35;22.80;63.10
152;DHT22;68;48.792;9.164;2023-07-20T09:51:03;23.10;62.60
152;DHT22;68;48.792;9.164;2023-07-20T09:53:33;23.20;61.40
152;DHT22;68;48.792;9.164;2023-07-20T09:56:00;23.20;62.60
152;DHT22;68;48.792;9.164;2023-07-20T09:58:29;23.10;63.60
152;DHT22;68;48.792;9.164;2023-07-20T10:00:58;23.10;63.50
152;DHT22;68;48.792;9.164;2023-07-20T10:03:29;23.10;62.20
152;DHT22;68;48.792;9.164;2023-07-20T10:05:57;23.10;62.80
152;DHT22;68;48.792;9.164;2023-07-20T10:08:26;23.00;60.50
152;DHT22;68;48.792;9.164;2023-07-20T10:10:57;23.20;61.30
152;DHT22;68;48.792;9.164;2023-07-20T10:13:26;23.30;61.90
152;DHT22;68;48.792;9.164;2023-07-20T10:15:54;23.50;59.90
152;DHT22;68;48.792;9.164;2023-07-20T10:18:28;23.60;60.10
152;DHT22;68;48.792;9.164;2023-07-20T10:20:56;23.70;60.80
152;DHT22;68;48.792;9.164;2023-07-20T10:23:28;23.70;58.70
152;DHT22;68;48.792;9.164;2023-07-20T10:25:56;23.70;57.90
152;DHT22;68;48.792;9.164;2023-07-20T10:28:23;23.80;56.20
152;DHT22;68;48.792;9.164;2023-07-20T10:30:50;23.90;58.30
152;DHT22;68;48.792;9.164;2023-07-20T10:33:17;23.70;57.30
152;DHT22;68;48.792;9.164;2023-07-20T10:35:55;23.80;57.50
152;DHT22;68;48.792;9.164;2023-07-20T10:38:41;24.00;58.40
152;DHT22;68;48.792;9.164;2023-07-20T10:41:19;24.10;57.70
152;DHT22;68;48.792;9.164;2023-07-20T10:43:47;24.20;57.00
152;DHT22;68;48.792;9.164;2023-07-20T10:46:14;24.30;57.50
152;DHT22;68;48.792;9.164;2023-07-20T10:49:00;24.30;56.80
152;DHT22;68;48.792;9.164;2023-07-20T10:51:27;23.90;56.10
152;DHT22;68;48.792;9.164;2023-07-20T10:53:56;23.80;57.70
152;DHT22;68;48.792;9.164;2023-07-20T10:56:26;24.00;55.80
152;DHT22;68;48.792;9.164;2023-07-20T10:58:57;24.00;56.30
152;DHT22;68;48.792;9.164;2023-07-20T11:01:28;24.10;56.50
152;DHT22;68;48.792;9.164;2023-07-20T11:03:58;24.10;55.40
152;DHT22;68;48.792;9.164;2023-07-20T11:06:31;24.10;55.80
152;DHT22;68;48.792;9.164;2023-07-20T11:09:05;24.30;55.90
152;DHT22;68;48.792;9.164;2023-07-20T11:11:34;24.60;55.20
152;DHT22;68;48.792;9.164;2023-07-20T11:14:02;24.70;54.30
152;DHT22;68;48.792;9.164;2023-07-20T11:16:40;24.60;52.60
152;DHT22;68;48.792;9.164;2023-07-20T11:19:14;24.60;53.50
152;DHT22;68;48.792;9.164;2023-07-20T11:21:43;24.70;52.80
152;DHT22;68;48.792;9.164;2023-07-20T11:24:11;24.80;53.90
152;DHT22;68;48.792;9.164;2023-07-20T11:26:43;24.70;53.60
152;DHT22;68;48.792;9.164;2023-07-20T11:29:10;24.50;53.60
152;DHT22;68;48.792;9.164;2023-07-20T11:31:37;24.70;53.60
152;DHT22;68;48.792;9.164;2023-07-20T11:34:04;25.00;52.90
152;DHT22;68;48.792;9.164;2023-07-20T11:36:32;25.30;54.00
152;DHT22;68;48.792;9.164;2023-07-20T11:38:59;25.60;51.90
152;DHT22;68;48.792;9.164;2023-07-20T11:41:28;25.90;51.00
152;DHT22;68;48.792;9.164;2023-07-20T11:43:55;26.00;52.20
152;DHT22;68;48.792;9.164;2023-07-20T11:46:22;26.20;51.00
152;DHT22;68;48.792;9.164;2023-07-20T11:48:48;26.50;49.40
152;DHT22;68;48.792;9.164;2023-07-20T11:51:16;26.60;48.70
152;DHT22;68;48.792;9.164;2023-07-20T11:53:44;26.40;49.80
152;DHT22;68;48.792;9.164;2023-07-20T11:56:11;26.20;49.60
152;DHT22;68;48.792;9.164;2023-07-20T11:58:43;26.10;49.50
152;DHT22;68;48.792;9.164;2023-07-20T12:01:12;26.30;49.40
152;DHT22;68;48.792;9.164;2023-07-20T12:03:39;26.10;49.80
152;DHT22;68;48.792;9.164;2023-07-20T12:06:09;26.80;50.10
152;DHT22;68;48.792;9.164;2023-07-20T12:08:38;27.10;47.40
152;DHT22;68;48.792;9.164;2023-07-20T12:11:06;26.60;49.70
152;DHT22;68;48.792;9.164;2023-07-20T12:13:37;26.90;46.10
152;DHT22;68;48.792;9.164;2023-07-20T12:16:10;26.80;47.10
152;DHT22;68;48.792;9.164;2023-07-20T12:18:38;26.10;48.60
152;DHT22;68;48.792;9.164;2023-07-20T12:21:06;25.10;48.30
152;DHT22;68;48.792;9.164;2023-07-20T12:23:37;24.80;50.20
152;DHT22;68;48.792;9.164;2023-07-20T12:26:07;24.80;50.50
152;DHT22;68;48.792;9.164;2023-07-20T12:28:39;24.60;50.30
152;DHT22;68;48.792;9.164;2023-07-20T12:31:07;25.20;49.70
152;DHT22;68;48.792;9.164;2023-07-20T12:33:36;25.90;50.20
152;DHT22;68;48.792;9.164;2023-07-20T12:36:04;26.40;50.40
152;DHT22;68;48.792;9.164;2023-07-20T12:38:31;26.30;51.40
152;DHT22;68;48.792;9.164;2023-07-20T12:41:00;26.20;49.40
152;DHT22;68;48.792;9.164;2023-07-20T12:43:26;26.10;51.00
152;DHT22;68;48.792;9.164;2023-07-20T12:45:54;25.80;49.30
152;DHT22;68;48.792;9.164;2023-07-20T12:48:21;25.90;49.50
152;DHT22;68;48.792;9.164;2023-07-20T12:50:49;25.80;52.80
152;DHT22;68;48.792;9.164;2023-07-20T12:53:16;25.50;49.80
152;DHT22;68;48.792;9.164;2023-07-20T12:55:43;24.90;50.20
152;DHT22;68;48.792;9.164;2023-07-20T12:58:11;25.30;50.10
152;DHT22;68;48.792;9.164;2023-07-20T13:00:38;25.30;50.20
152;DHT22;68;48.792;9.164;2023-07-20T13:03:04;25.30;48.50
152;DHT22;68;48.792;9.164;2023-07-20T13:05:32;25.50;48.30
152;DHT22;68;48.792;9.164;2023-07-20T13:08:01;25.80;50.50
152;DHT22;68;48.792;9.164;2023-07-20T13:10:28;26.20;48.10
152;DHT22;68;48.792;9.164;2023-07-20T13:12:55;26.30;48.60
152;DHT22;68;48.792;9.164;2023-07-20T13:15:24;26.30;49.50
152;DHT22;68;48.792;9.164;2023-07-20T13:17:55;26.40;49.30
152;DHT22;68;48.792;9.164;2023-07-20T13:20:22;26.50;48.50
152;DHT22;68;48.792;9.164;2023-07-20T13:22:49;26.40;47.10
152;DHT22;68;48.792;9.164;2023-07-20T13:25:17;26.40;48.10
152;DHT22;68;48.792;9.164;2023-07-20T13:27:45;26.40;48.30
152;DHT22;68;48.792;9.164;2023-07-20T13:30:12;26.30;46.70
152;DHT22;68;48.792;9.164;2023-07-20T13:32:42;26.00;47.20
152;DHT22;68;48.792;9.164;2023-07-20T13:35:09;26.10;46.90
152;DHT22;68;48.792;9.164;2023-07-20T13:37:35;25.70;47.10
152;DHT22;68;48.792;9.164;2023-07-20T13:40:03;25.70;52.10
152;DHT22;68;48.792;9.164;2023-07-20T13:42:32;25.70;52.10
152;DHT22;68;48.792;9.164;2023-07-20T13:44:59;25.80;48.10
152;DHT22;68;48.792;9.164;2023-07-20T13:47:26;25.70;48.50
152;DHT22;68;48.792;9.164;2023-07-20T13:49:53;25.50;45.90
152;DHT22;68;48.792;9.164;2023-07-20T13:52:20;25.40;49.60
152;DHT22;68;48.792;9.164;2023-07-20T13:54:47;25.70;48.80
152;DHT22;68;48.792;9.164;2023-07-20T13:57:14;25.70;52.10
152;DHT22;68;48.792;9.164;2023-07-20T13:59:43;25.30;48.60
152;DHT22;68;48.792;9.164;2023-07-20T14:02:10;25.10;49.10
152;DHT22;68;48.792;9.164;2023-07-20T14:04:38;25.40;49.30
152;DHT22;68;48.792;9.164;2023-07-20T14:07:05;25.80;48.60
152;DHT22;68;48.792;9.164;2023-07-20T14:09:32;25.80;50.50
152;DHT22;68;48.792;9.164;2023-07-20T14:11:59;25.80;48.30
152;DHT22;68;48.792;9.164;2023-07-20T14:16:54;25.20;48.00
152;DHT22;68;48.792;9.164;2023-07-20T14:19:22;25.50;47.90
152;DHT22;68;48.792;9.164;2023-07-20T14:21:49;25.70;49.50
152;DHT22;68;48.792;9.164;2023-07-20T14:24:15;26.00;46.90
152;DHT22;68;48.792;9.164;2023-07-20T14:26:42;25.80;45.70
152;DHT22;68;48.792;9.164;2023-07-20T14:29:09;25.70;46.00
152;DHT22;68;48.792;9.164;2023-07-20T14:31:35;25.90;47.20
152;DHT22;68;48.792;9.164;2023-07-20T14:34:03;25.90;48.60
152;DHT22;68;48.792;9.164;2023-07-20T14:36:30;26.00;47.90
152;DHT22;68;48.792;9.164;2023-07-20T14:38:57;25.80;49.90
152;DHT22;68;48.792;9.164;2023-07-20T14:41:24;25.50;48.30
152;DHT22;68;48.792;9.164;2023-07-20T14:43:51;25.40;46.70
152;DHT22;68;48.792;9.164;2023-07-20T14:46:18;25.50;47.70
152;DHT22;68;48.792;9.164;2023-07-20T14:48:44;25.50;48.90
152;DHT22;68;48.792;9.164;2023-07-20T14:51:13;25.50;46.10
152;DHT22;68;48.792;9.164;2023-07-20T14:53:40;25.80;47.80
152;DHT22;68;48.792;9.164;2023-07-20T14:56:07;25.80;45.60
152;DHT22;68;48.792;9.164;2023-07-20T14:58:34;25.60;47.00
152;DHT22;68;48.792;9.164;2023-07-20T15:01:01;25.80;44.80
152;DHT22;68;48.792;9.164;2023-07-20T15:03:28;25.80;47.50
152;DHT22;68;48.792;9.164;2023-07-20T15:05:56;25.60;46.10
152;DHT22;68;48.792;9.164;2023-07-20T15:08:24;25.70;46.90
152;DHT22;68;48.792;9.164;2023-07-20T15:10:51;25.70;45.90
152;DHT22;68;48.792;9.164;2023-07-20T15:13:18;25.70;46.40
152;DHT22;68;48.792;9.164;2023-07-20T15:15:44;25.50;46.30
152;DHT22;68;48.792;9.164;2023-07-20T15:18:11;25.70;48.20
152;DHT22;68;48.792;9.164;2023-07-20T15:20:38;25.80;49.90
152;DHT22;68;48.792;9.164;2023-07-20T15:23:05;25.80;47.00
152;DHT22;68;48.792;9.164;2023-07-20T15:25:33;26.00;48.70
152;DHT22;68;48.792;9.164;2023-07-20T15:28:00;26.00;47.30
152;DHT22;68;48.792;9.164;2023-07-20T15:32:54;26.00;46.60
152;DHT22;68;48.792;9.164;2023-07-20T15:35:22;25.80;44.50
152;DHT22;68;48.792;9.164;2023-07-20T15:37:49;25.50;45.30
152;DHT22;68;48.792;9.164;2023-07-20T15:40:16;25.30;45.70
152;DHT22;68;48.792;9.164;2023-07-20T15:42:44;25.10;46.60
152;DHT22;68;48.792;9.164;2023-07-20T15:45:11;25.30;47.70
152;DHT22;68;48.792;9.164;2023-07-20T15:47:38;25.30;48.90
152;DHT22;68;48.792;9.164;2023-07-20T15:50:05;25.20;49.30
152;DHT22;68;48.792;9.164;2023-07-20T15:52:32;25.30;46.40
152;DHT22;68;48.792;9.164;2023-07-20T15:54:59;25.20;46.90
152;DHT22;68;48.792;9.164;2023-07-20T15:57:26;25.10;46.30
152;DHT22;68;48.792;9.164;2023-07-20T15:59:54;25.10;47.90
152;DHT22;68;48.792;9.164;2023-07-20T16:02:20;25.10;49.00
152;DHT22;68;48.792;9.164;2023-07-20T16:04:47;25.20;50.00
152;DHT22;68;48.792;9.164;2023-07-20T16:07:14;25.30;50.20
152;DHT22;68;48.792;9.164;2023-07-20T16:09:41;25.40;48.90
152;DHT22;68;48.792;9.164;2023-07-20T16:12:08;25.30;49.60
152;DHT22;68;48.792;9.164;2023-07-20T16:14:35;25.20;48.10
152;DHT22;68;48.792;9.164;2023-07-20T16:17:03;25.20;49.80
152;DHT22;68;48.792;9.164;2023-07-20T16:19:30;24.90;48.90
152;DHT22;68;48.792;9.164;2023-07-20T16:21:57;25.00;48.10
152;DHT22;68;48.792;9.164;2023-07-20T16:24:24;24.90;49.80
152;DHT22;68;48.792;9.164;2023-07-20T16:26:51;24.90;49.90
152;DHT22;68;48.792;9.164;2023-07-20T16:29:17;24.80;49.20
152;DHT22;68;48.792;9.164;2023-07-20T16:31:45;24.90;47.90
152;DHT22;68;48.792;9.164;2023-07-20T16:34:13;24.90;47.30
152;DHT22;68;48.792;9.164;2023-07-20T16:36:40;25.00;48.20
152;DHT22;68;48.792;9.164;2023-07-20T16:39:07;25.00;46.70
152;DHT22;68;48.792;9.164;2023-07-20T16:41:35;24.90;48.10
152;DHT22;68;48.792;9.164;2023-07-20T16:44:02;24.90;46.70
152;DHT22;68;48.792;9.164;2023-07-20T16:46:29;24.90;47.00
152;DHT22;68;48.792;9.164;2023-07-20T16:48:57;24.90;48.50
152;DHT22;68;48.792;9.164;2023-07-20T16:51:31;24.90;48.50
152;DHT22;68;48.792;9.164;2023-07-20T16:53:58;25.10;47.90
152;DHT22;68;48.792;9.164;2023-07-20T16:56:25;25.00;48.10
152;DHT22;68;48.792;9.164;2023-07-20T16:58:52;25.00;47.40
152;DHT22;68;48.792;9.164;2023-07-20T17:01:19;24.90;48.20
152;DHT22;68;48.792;9.164;2023-07-20T17:03:46;24.80;48.00